Aérodrome :
LOGIN :

S'inscrire | Disclaimer

   EN    FR    IT 

 










Légende :    VFR   VFR Marginal   IFR   IFR Intensif   IFR Très Intensif
Visi : 
Plafond : 
>= 8 km
>= 3000ft
5 à 8 km
1000 à 3000 ft
1500m à 5 km
500 à 1000 ft
800 à 1500m
200 à 500 ft
< 800m
< 200 ft
Symboles :   Orages  Brouillard  Fortes neiges  Fortes précipitations  Vent > 20 kt
SIGMETs :   Divers  Orages  Givrage  Turbulence  Onde Orograph.  Cendres Volcan.






- Altitude de l'aérodrome : 194 ft


EBCV - Chièvres

DERNIER METAR :
  • 190255Z AUTO 01006KT 3300 BR FEW006/// SCT009/// BKN012/// 15/14 Q1015 YLO

METARs EXPIRÉS :
  • 190225Z AUTO 01004KT 3300 BR BKN006/// BKN055/// OVC095/// 15/15 Q1015 YLO
  • 190155Z AUTO 01006KT 3200 BR SCT005/// BKN007/// OVC095/// 15/15 Q1015 YLO
  • 190125Z AUTO 01006KT 3400 BR FEW004/// BKN006/// BKN070/// 15/15 Q1014 YLO
  • 190055Z AUTO 36005KT 3600 BR FEW004/// BKN085/// 14/14 Q1014 YLO
  • 190043Z AUTO 02003KT 4900 FEW004/// BKN090/// 14/14 Q1015 GRN
  • 190018Z AUTO 01005KT 7000 FEW041/// SCT075/// OVC090/// 14/14 Q1014 WHT
  • 182355Z AUTO 36006KT 9999 FEW024/// BKN090/// 14/14 Q1014 BLU
  • 182325Z AUTO 36007KT 9999 FEW021/// BKN090/// OVC100/// 14/14 Q1014 BLU
  • 182255Z AUTO 36005KT 9999 FEW020/// SCT055/// OVC080/// 14/14 Q1014 BLU
  • 182225Z AUTO 03003KT 9999 FEW039/// BKN075/// 14/14 Q1014 BLU

TAF TAF EBCV
Valide du 18 à 19h jusqu'au 19 à 07h UTC


181541Z 1819/1907 01007KT 8000 FEW008 SCT012 BKN080
TEMPO 1819/1822 6000 -RA SCT005 OVC010
TEMPO 1822/1907 BKN006 BY EBWM



MET'MAP, la Météo Aéronautique d'un coup d'oeil ! - Copyright ORBIFLY Décembre 2007 - Disclaimer

ORBIFLY MET'MAP TEAM :

Programmation & Développement : Alexandra Zaïnal
Sur une idée originale de : Baudouin d'Aumeries
Soutien technique & logistique : Manuel Goepfert
Assistance : Marc-Olivier Méhu




SOURCES & CREDITS :

   NOAA